sensor_id;sensor_type;location;lat;lon;timestamp;P1;durP1;ratioP1;P2;durP2;ratioP2
62435;SDS011;48480;50.252;18.848;2023-04-25T00:00:12;12.50;;;8.60;;
62435;SDS011;48480;50.252;18.848;2023-04-25T00:02:56;14.60;;;9.20;;
62435;SDS011;48480;50.252;18.848;2023-04-25T00:05:40;13.60;;;9.50;;
62435;SDS011;48480;50.252;18.848;2023-04-25T00:08:25;12.10;;;8.40;;
62435;SDS011;48480;50.252;18.848;2023-04-25T00:11:09;12.50;;;7.80;;
62435;SDS011;48480;50.252;18.848;2023-04-25T00:13:53;10.10;;;8.70;;
62435;SDS011;48480;50.252;18.848;2023-04-25T00:16:38;11.90;;;8.70;;
62435;SDS011;48480;50.252;18.848;2023-04-25T00:19:22;12.00;;;8.50;;
62435;SDS011;48480;50.252;18.848;2023-04-25T00:22:07;10.90;;;8.10;;
62435;SDS011;48480;50.252;18.848;2023-04-25T00:24:51;11.60;;;8.40;;
62435;SDS011;48480;50.252;18.848;2023-04-25T00:27:36;10.30;;;8.30;;
62435;SDS011;48480;50.252;18.848;2023-04-25T00:30:22;11.70;;;8.70;;
62435;SDS011;48480;50.252;18.848;2023-04-25T00:33:07;11.00;;;7.60;;
62435;SDS011;48480;50.252;18.848;2023-04-25T00:35:52;14.20;;;9.20;;
62435;SDS011;48480;50.252;18.848;2023-04-25T00:38:36;12.70;;;8.10;;
62435;SDS011;48480;50.252;18.848;2023-04-25T00:41:22;10.50;;;7.70;;
62435;SDS011;48480;50.252;18.848;2023-04-25T00:44:05;10.90;;;8.60;;
62435;SDS011;48480;50.252;18.848;2023-04-25T00:46:53;12.50;;;9.00;;
62435;SDS011;48480;50.252;18.848;2023-04-25T00:49:38;11.90;;;8.40;;
62435;SDS011;48480;50.252;18.848;2023-04-25T00:52:22;14.00;;;8.00;;
62435;SDS011;48480;50.252;18.848;2023-04-25T00:55:06;10.00;;;7.90;;
62435;SDS011;48480;50.252;18.848;2023-04-25T00:57:51;10.40;;;8.00;;
62435;SDS011;48480;50.252;18.848;2023-04-25T01:00:35;11.00;;;7.60;;
62435;SDS011;48480;50.252;18.848;2023-04-25T01:03:20;9.60;;;7.00;;
62435;SDS011;48480;50.252;18.848;2023-04-25T01:06:04;9.70;;;7.20;;
62435;SDS011;48480;50.252;18.848;2023-04-25T01:08:48;7.90;;;6.40;;
62435;SDS011;48480;50.252;18.848;2023-04-25T01:11:32;7.20;;;6.10;;
62435;SDS011;48480;50.252;18.848;2023-04-25T01:14:16;8.10;;;5.70;;
62435;SDS011;48480;50.252;18.848;2023-04-25T01:17:00;8.70;;;5.80;;
62435;SDS011;48480;50.252;18.848;2023-04-25T01:19:45;6.80;;;5.30;;
62435;SDS011;48480;50.252;18.848;2023-04-25T01:22:32;5.90;;;4.20;;
62435;SDS011;48480;50.252;18.848;2023-04-25T01:25:18;7.00;;;4.80;;
62435;SDS011;48480;50.252;18.848;2023-04-25T01:28:02;6.10;;;4.50;;
62435;SDS011;48480;50.252;18.848;2023-04-25T01:30:46;4.80;;;3.90;;
62435;SDS011;48480;50.252;18.848;2023-04-25T01:33:31;6.60;;;3.70;;
62435;SDS011;48480;50.252;18.848;2023-04-25T01:36:15;5.90;;;3.60;;
62435;SDS011;48480;50.252;18.848;2023-04-25T01:39:00;7.50;;;4.40;;
62435;SDS011;48480;50.252;18.848;2023-04-25T01:41:45;5.20;;;3.50;;
62435;SDS011;48480;50.252;18.848;2023-04-25T01:44:31;4.70;;;3.50;;
62435;SDS011;48480;50.252;18.848;2023-04-25T01:47:15;5.10;;;3.70;;
62435;SDS011;48480;50.252;18.848;2023-04-25T01:49:59;5.90;;;4.10;;
62435;SDS011;48480;50.252;18.848;2023-04-25T01:52:43;4.30;;;3.50;;
62435;SDS011;48480;50.252;18.848;2023-04-25T01:55:28;6.30;;;3.80;;
62435;SDS011;48480;50.252;18.848;2023-04-25T01:58:12;5.10;;;3.30;;
62435;SDS011;48480;50.252;18.848;2023-04-25T02:00:56;6.50;;;4.00;;
62435;SDS011;48480;50.252;18.848;2023-04-25T02:03:40;4.60;;;3.30;;
62435;SDS011;48480;50.252;18.848;2023-04-25T02:06:24;5.20;;;3.40;;
62435;SDS011;48480;50.252;18.848;2023-04-25T02:09:08;4.60;;;3.50;;
62435;SDS011;48480;50.252;18.848;2023-04-25T02:11:52;5.60;;;3.50;;
62435;SDS011;48480;50.252;18.848;2023-04-25T02:14:37;4.20;;;3.30;;
62435;SDS011;48480;50.252;18.848;2023-04-25T02:17:21;4.30;;;3.50;;
62435;SDS011;48480;50.252;18.848;2023-04-25T02:20:06;5.60;;;3.60;;
62435;SDS011;48480;50.252;18.848;2023-04-25T02:22:51;5.00;;;3.40;;
62435;SDS011;48480;50.252;18.848;2023-04-25T02:25:35;6.70;;;3.50;;
62435;SDS011;48480;50.252;18.848;2023-04-25T02:28:19;3.90;;;2.70;;
62435;SDS011;48480;50.252;18.848;2023-04-25T02:31:03;4.00;;;3.00;;
62435;SDS011;48480;50.252;18.848;2023-04-25T02:33:47;6.00;;;3.10;;
62435;SDS011;48480;50.252;18.848;2023-04-25T02:36:31;5.30;;;3.20;;
62435;SDS011;48480;50.252;18.848;2023-04-25T02:39:17;5.50;;;2.90;;
62435;SDS011;48480;50.252;18.848;2023-04-25T02:42:02;5.00;;;3.30;;
62435;SDS011;48480;50.252;18.848;2023-04-25T02:44:46;5.30;;;3.20;;
62435;SDS011;48480;50.252;18.848;2023-04-25T02:47:30;5.30;;;3.20;;
62435;SDS011;48480;50.252;18.848;2023-04-25T02:50:14;6.60;;;2.80;;
62435;SDS011;48480;50.252;18.848;2023-04-25T02:52:58;3.40;;;2.60;;
62435;SDS011;48480;50.252;18.848;2023-04-25T02:55:42;4.70;;;2.50;;
62435;SDS011;48480;50.252;18.848;2023-04-25T02:58:26;4.10;;;2.50;;
62435;SDS011;48480;50.252;18.848;2023-04-25T03:01:11;4.00;;;3.10;;
62435;SDS011;48480;50.252;18.848;2023-04-25T03:03:55;2.90;;;2.20;;
62435;SDS011;48480;50.252;18.848;2023-04-25T03:06:39;3.00;;;2.20;;
62435;SDS011;48480;50.252;18.848;2023-04-25T03:09:23;3.60;;;2.30;;
62435;SDS011;48480;50.252;18.848;2023-04-25T03:12:07;2.30;;;2.10;;
62435;SDS011;48480;50.252;18.848;2023-04-25T03:14:51;3.20;;;2.20;;
62435;SDS011;48480;50.252;18.848;2023-04-25T03:17:35;4.00;;;2.60;;
62435;SDS011;48480;50.252;18.848;2023-04-25T03:20:19;3.10;;;2.40;;
62435;SDS011;48480;50.252;18.848;2023-04-25T03:23:04;3.50;;;2.50;;
62435;SDS011;48480;50.252;18.848;2023-04-25T03:25:47;5.70;;;2.60;;
62435;SDS011;48480;50.252;18.848;2023-04-25T03:28:31;4.50;;;2.70;;
62435;SDS011;48480;50.252;18.848;2023-04-25T03:31:15;4.60;;;2.60;;
62435;SDS011;48480;50.252;18.848;2023-04-25T03:33:59;5.60;;;3.10;;
62435;SDS011;48480;50.252;18.848;2023-04-25T03:36:43;3.40;;;2.90;;
62435;SDS011;48480;50.252;18.848;2023-04-25T03:39:27;4.40;;;2.40;;
62435;SDS011;48480;50.252;18.848;2023-04-25T03:42:12;3.30;;;2.40;;
62435;SDS011;48480;50.252;18.848;2023-04-25T03:44:56;3.20;;;1.90;;
62435;SDS011;48480;50.252;18.848;2023-04-25T03:47:40;5.30;;;2.30;;
62435;SDS011;48480;50.252;18.848;2023-04-25T03:50:24;3.60;;;2.00;;
62435;SDS011;48480;50.252;18.848;2023-04-25T03:53:07;3.90;;;2.30;;
62435;SDS011;48480;50.252;18.848;2023-04-25T03:55:52;2.50;;;2.00;;
62435;SDS011;48480;50.252;18.848;2023-04-25T03:58:36;3.20;;;2.10;;
62435;SDS011;48480;50.252;18.848;2023-04-25T04:01:20;4.20;;;2.60;;
62435;SDS011;48480;50.252;18.848;2023-04-25T04:04:04;3.60;;;2.30;;
62435;SDS011;48480;50.252;18.848;2023-04-25T04:06:48;4.00;;;2.30;;
62435;SDS011;48480;50.252;18.848;2023-04-25T04:09:32;3.70;;;3.00;;
62435;SDS011;48480;50.252;18.848;2023-04-25T04:12:16;3.40;;;3.00;;
62435;SDS011;48480;50.252;18.848;2023-04-25T04:15:01;4.30;;;3.90;;
62435;SDS011;48480;50.252;18.848;2023-04-25T04:17:49;3.80;;;2.70;;
62435;SDS011;48480;50.252;18.848;2023-04-25T04:20:33;4.30;;;3.10;;
62435;SDS011;48480;50.252;18.848;2023-04-25T04:23:17;4.70;;;3.10;;
62435;SDS011;48480;50.252;18.848;2023-04-25T04:26:01;5.00;;;3.50;;
62435;SDS011;48480;50.252;18.848;2023-04-25T04:28:45;7.20;;;3.30;;
62435;SDS011;48480;50.252;18.848;2023-04-25T04:31:29;6.00;;;3.20;;
62435;SDS011;48480;50.252;18.848;2023-04-25T04:34:13;8.30;;;2.90;;
62435;SDS011;48480;50.252;18.848;2023-04-25T04:36:57;7.50;;;3.50;;
62435;SDS011;48480;50.252;18.848;2023-04-25T04:39:41;8.70;;;3.70;;
62435;SDS011;48480;50.252;18.848;2023-04-25T04:42:25;6.10;;;3.50;;
62435;SDS011;48480;50.252;18.848;2023-04-25T04:45:09;6.80;;;3.60;;
62435;SDS011;48480;50.252;18.848;2023-04-25T04:47:54;3.80;;;3.10;;
62435;SDS011;48480;50.252;18.848;2023-04-25T04:50:38;5.30;;;3.00;;
62435;SDS011;48480;50.252;18.848;2023-04-25T04:53:23;5.30;;;3.50;;
62435;SDS011;48480;50.252;18.848;2023-04-25T04:56:08;4.40;;;2.80;;
62435;SDS011;48480;50.252;18.848;2023-04-25T04:58:52;5.80;;;3.70;;
62435;SDS011;48480;50.252;18.848;2023-04-25T05:01:36;5.80;;;3.10;;
62435;SDS011;48480;50.252;18.848;2023-04-25T05:04:20;4.90;;;3.10;;
62435;SDS011;48480;50.252;18.848;2023-04-25T05:07:04;3.50;;;2.60;;
62435;SDS011;48480;50.252;18.848;2023-04-25T05:09:48;5.80;;;3.50;;
62435;SDS011;48480;50.252;18.848;2023-04-25T05:12:32;6.10;;;3.20;;
62435;SDS011;48480;50.252;18.848;2023-04-25T05:15:17;4.20;;;3.20;;
62435;SDS011;48480;50.252;18.848;2023-04-25T05:18:01;5.00;;;2.70;;
62435;SDS011;48480;50.252;18.848;2023-04-25T05:20:45;3.80;;;2.70;;
62435;SDS011;48480;50.252;18.848;2023-04-25T05:23:30;3.90;;;2.80;;
62435;SDS011;48480;50.252;18.848;2023-04-25T05:26:14;3.80;;;2.90;;
62435;SDS011;48480;50.252;18.848;2023-04-25T05:28:58;3.90;;;3.00;;
62435;SDS011;48480;50.252;18.848;2023-04-25T05:31:42;3.90;;;3.00;;
62435;SDS011;48480;50.252;18.848;2023-04-25T05:34:27;6.00;;;3.20;;
62435;SDS011;48480;50.252;18.848;2023-04-25T05:37:11;4.50;;;3.60;;
62435;SDS011;48480;50.252;18.848;2023-04-25T05:39:55;5.60;;;4.50;;
62435;SDS011;48480;50.252;18.848;2023-04-25T05:42:39;9.80;;;3.60;;
62435;SDS011;48480;50.252;18.848;2023-04-25T05:45:23;4.80;;;3.80;;
62435;SDS011;48480;50.252;18.848;2023-04-25T05:48:07;6.30;;;4.60;;
62435;SDS011;48480;50.252;18.848;2023-04-25T05:50:51;6.00;;;4.40;;
62435;SDS011;48480;50.252;18.848;2023-04-25T05:53:35;6.20;;;4.60;;
62435;SDS011;48480;50.252;18.848;2023-04-25T05:56:19;5.60;;;4.20;;
62435;SDS011;48480;50.252;18.848;2023-04-25T05:59:03;7.40;;;4.10;;
62435;SDS011;48480;50.252;18.848;2023-04-25T06:01:48;5.20;;;4.00;;
62435;SDS011;48480;50.252;18.848;2023-04-25T06:04:32;6.30;;;4.40;;
62435;SDS011;48480;50.252;18.848;2023-04-25T06:07:17;5.10;;;3.90;;
62435;SDS011;48480;50.252;18.848;2023-04-25T06:10:02;7.10;;;4.60;;
62435;SDS011;48480;50.252;18.848;2023-04-25T06:12:51;7.30;;;3.70;;
62435;SDS011;48480;50.252;18.848;2023-04-25T06:15:35;6.70;;;4.10;;
62435;SDS011;48480;50.252;18.848;2023-04-25T06:18:20;6.70;;;4.30;;
62435;SDS011;48480;50.252;18.848;2023-04-25T06:21:05;5.60;;;3.90;;
62435;SDS011;48480;50.252;18.848;2023-04-25T06:23:49;6.00;;;4.80;;
62435;SDS011;48480;50.252;18.848;2023-04-25T06:26:33;5.90;;;4.00;;
62435;SDS011;48480;50.252;18.848;2023-04-25T06:29:18;5.00;;;3.60;;
62435;SDS011;48480;50.252;18.848;2023-04-25T06:32:03;5.00;;;4.00;;
62435;SDS011;48480;50.252;18.848;2023-04-25T06:34:47;6.40;;;4.00;;
62435;SDS011;48480;50.252;18.848;2023-04-25T06:37:31;6.60;;;3.30;;
62435;SDS011;48480;50.252;18.848;2023-04-25T06:40:15;5.90;;;4.00;;
62435;SDS011;48480;50.252;18.848;2023-04-25T06:43:01;5.10;;;3.80;;
62435;SDS011;48480;50.252;18.848;2023-04-25T06:45:45;6.00;;;4.80;;
62435;SDS011;48480;50.252;18.848;2023-04-25T06:48:29;6.10;;;4.40;;
62435;SDS011;48480;50.252;18.848;2023-04-25T06:51:13;6.80;;;4.70;;
62435;SDS011;48480;50.252;18.848;2023-04-25T06:53:57;6.00;;;3.90;;
62435;SDS011;48480;50.252;18.848;2023-04-25T06:56:41;5.80;;;4.30;;
62435;SDS011;48480;50.252;18.848;2023-04-25T06:59:26;6.20;;;4.30;;
62435;SDS011;48480;50.252;18.848;2023-04-25T07:02:10;5.60;;;4.10;;
62435;SDS011;48480;50.252;18.848;2023-04-25T07:04:54;6.70;;;4.80;;
62435;SDS011;48480;50.252;18.848;2023-04-25T07:07:43;8.20;;;4.10;;
62435;SDS011;48480;50.252;18.848;2023-04-25T07:10:28;5.70;;;4.70;;
62435;SDS011;48480;50.252;18.848;2023-04-25T07:13:13;5.00;;;4.10;;
62435;SDS011;48480;50.252;18.848;2023-04-25T07:15:57;5.30;;;4.20;;
62435;SDS011;48480;50.252;18.848;2023-04-25T07:18:42;5.90;;;4.40;;
62435;SDS011;48480;50.252;18.848;2023-04-25T07:21:26;6.00;;;4.10;;
62435;SDS011;48480;50.252;18.848;2023-04-25T07:24:10;6.80;;;4.00;;
62435;SDS011;48480;50.252;18.848;2023-04-25T07:26:54;6.70;;;4.50;;
62435;SDS011;48480;50.252;18.848;2023-04-25T07:29:39;6.20;;;4.10;;
62435;SDS011;48480;50.252;18.848;2023-04-25T07:32:23;6.30;;;4.50;;
62435;SDS011;48480;50.252;18.848;2023-04-25T07:35:09;5.20;;;3.90;;
62435;SDS011;48480;50.252;18.848;2023-04-25T07:37:52;6.30;;;4.60;;
62435;SDS011;48480;50.252;18.848;2023-04-25T07:40:36;5.00;;;4.00;;
62435;SDS011;48480;50.252;18.848;2023-04-25T07:43:21;6.00;;;4.20;;
62435;SDS011;48480;50.252;18.848;2023-04-25T07:46:05;6.60;;;4.60;;
62435;SDS011;48480;50.252;18.848;2023-04-25T07:48:50;6.50;;;4.50;;
62435;SDS011;48480;50.252;18.848;2023-04-25T07:51:34;5.10;;;3.60;;
62435;SDS011;48480;50.252;18.848;2023-04-25T07:54:18;6.80;;;4.20;;
62435;SDS011;48480;50.252;18.848;2023-04-25T07:57:03;5.80;;;4.50;;
62435;SDS011;48480;50.252;18.848;2023-04-25T07:59:47;6.00;;;4.40;;
62435;SDS011;48480;50.252;18.848;2023-04-25T08:02:33;6.30;;;4.50;;
62435;SDS011;48480;50.252;18.848;2023-04-25T08:05:17;5.90;;;4.30;;
62435;SDS011;48480;50.252;18.848;2023-04-25T08:08:01;5.60;;;4.50;;
62435;SDS011;48480;50.252;18.848;2023-04-25T08:10:45;6.90;;;4.40;;
62435;SDS011;48480;50.252;18.848;2023-04-25T08:13:31;8.40;;;5.10;;
62435;SDS011;48480;50.252;18.848;2023-04-25T08:16:16;6.10;;;4.80;;
62435;SDS011;48480;50.252;18.848;2023-04-25T08:19:00;6.10;;;4.70;;
62435;SDS011;48480;50.252;18.848;2023-04-25T08:21:44;7.00;;;4.60;;
62435;SDS011;48480;50.252;18.848;2023-04-25T08:24:29;5.90;;;4.70;;
62435;SDS011;48480;50.252;18.848;2023-04-25T08:27:13;6.70;;;4.90;;
62435;SDS011;48480;50.252;18.848;2023-04-25T08:29:57;6.20;;;4.00;;
62435;SDS011;48480;50.252;18.848;2023-04-25T08:32:42;6.00;;;4.50;;
62435;SDS011;48480;50.252;18.848;2023-04-25T08:35:25;6.10;;;4.50;;
62435;SDS011;48480;50.252;18.848;2023-04-25T08:38:11;5.10;;;3.80;;
62435;SDS011;48480;50.252;18.848;2023-04-25T08:40:56;4.70;;;3.40;;
62435;SDS011;48480;50.252;18.848;2023-04-25T08:43:43;4.90;;;3.40;;
62435;SDS011;48480;50.252;18.848;2023-04-25T08:46:28;4.90;;;3.90;;
62435;SDS011;48480;50.252;18.848;2023-04-25T08:49:15;5.10;;;3.80;;
62435;SDS011;48480;50.252;18.848;2023-04-25T08:52:04;5.00;;;3.60;;
62435;SDS011;48480;50.252;18.848;2023-04-25T08:54:50;6.80;;;3.50;;
62435;SDS011;48480;50.252;18.848;2023-04-25T08:57:36;6.40;;;3.50;;
62435;SDS011;48480;50.252;18.848;2023-04-25T09:00:20;4.60;;;3.60;;
62435;SDS011;48480;50.252;18.848;2023-04-25T09:03:07;5.20;;;3.70;;
62435;SDS011;48480;50.252;18.848;2023-04-25T09:05:52;5.30;;;4.10;;
62435;SDS011;48480;50.252;18.848;2023-04-25T09:08:37;4.40;;;3.60;;
62435;SDS011;48480;50.252;18.848;2023-04-25T09:11:25;5.70;;;3.80;;
62435;SDS011;48480;50.252;18.848;2023-04-25T09:14:20;6.50;;;4.50;;
62435;SDS011;48480;50.252;18.848;2023-04-25T09:17:09;4.70;;;3.70;;
62435;SDS011;48480;50.252;18.848;2023-04-25T09:19:53;5.10;;;3.70;;
62435;SDS011;48480;50.252;18.848;2023-04-25T09:22:38;5.10;;;4.10;;
62435;SDS011;48480;50.252;18.848;2023-04-25T09:25:22;5.30;;;4.10;;
62435;SDS011;48480;50.252;18.848;2023-04-25T09:28:09;5.20;;;3.40;;
62435;SDS011;48480;50.252;18.848;2023-04-25T09:30:54;5.30;;;2.80;;
62435;SDS011;48480;50.252;18.848;2023-04-25T09:33:41;5.10;;;3.70;;
62435;SDS011;48480;50.252;18.848;2023-04-25T09:36:26;5.70;;;4.00;;
62435;SDS011;48480;50.252;18.848;2023-04-25T09:39:12;5.60;;;3.90;;
62435;SDS011;48480;50.252;18.848;2023-04-25T09:41:59;4.30;;;2.80;;
62435;SDS011;48480;50.252;18.848;2023-04-25T09:44:44;4.10;;;3.30;;
62435;SDS011;48480;50.252;18.848;2023-04-25T09:47:28;4.40;;;3.10;;
62435;SDS011;48480;50.252;18.848;2023-04-25T09:50:13;4.20;;;3.30;;
62435;SDS011;48480;50.252;18.848;2023-04-25T09:53:03;4.80;;;3.10;;
62435;SDS011;48480;50.252;18.848;2023-04-25T09:55:50;4.20;;;3.20;;
62435;SDS011;48480;50.252;18.848;2023-04-25T09:58:36;4.50;;;2.70;;
62435;SDS011;48480;50.252;18.848;2023-04-25T10:01:22;4.00;;;2.80;;
62435;SDS011;48480;50.252;18.848;2023-04-25T10:04:08;6.90;;;3.00;;
62435;SDS011;48480;50.252;18.848;2023-04-25T10:06:55;4.90;;;3.20;;
62435;SDS011;48480;50.252;18.848;2023-04-25T10:09:40;7.30;;;5.00;;
62435;SDS011;48480;50.252;18.848;2023-04-25T10:12:26;6.60;;;3.70;;
62435;SDS011;48480;50.252;18.848;2023-04-25T10:15:10;5.10;;;3.20;;
62435;SDS011;48480;50.252;18.848;2023-04-25T10:17:55;7.50;;;3.30;;
62435;SDS011;48480;50.252;18.848;2023-04-25T10:20:40;4.90;;;3.20;;
62435;SDS011;48480;50.252;18.848;2023-04-25T10:23:24;6.00;;;3.20;;
62435;SDS011;48480;50.252;18.848;2023-04-25T10:26:09;6.90;;;4.30;;
62435;SDS011;48480;50.252;18.848;2023-04-25T10:29:03;5.00;;;3.30;;
62435;SDS011;48480;50.252;18.848;2023-04-25T10:31:47;4.40;;;3.30;;
62435;SDS011;48480;50.252;18.848;2023-04-25T10:34:38;4.20;;;3.30;;
62435;SDS011;48480;50.252;18.848;2023-04-25T10:37:23;3.40;;;2.60;;
62435;SDS011;48480;50.252;18.848;2023-04-25T10:40:08;3.30;;;2.30;;
62435;SDS011;48480;50.252;18.848;2023-04-25T10:42:53;3.80;;;2.20;;
62435;SDS011;48480;50.252;18.848;2023-04-25T10:45:51;5.40;;;2.80;;
62435;SDS011;48480;50.252;18.848;2023-04-25T10:48:35;6.40;;;3.20;;
62435;SDS011;48480;50.252;18.848;2023-04-25T10:54:08;3.40;;;2.60;;
62435;SDS011;48480;50.252;18.848;2023-04-25T10:56:52;3.60;;;2.60;;
62435;SDS011;48480;50.252;18.848;2023-04-25T10:59:37;4.10;;;2.80;;
62435;SDS011;48480;50.252;18.848;2023-04-25T11:02:25;5.90;;;2.70;;
62435;SDS011;48480;50.252;18.848;2023-04-25T11:08:11;4.20;;;2.80;;
62435;SDS011;48480;50.252;18.848;2023-04-25T11:10:55;4.40;;;3.20;;
62435;SDS011;48480;50.252;18.848;2023-04-25T11:13:39;4.80;;;2.80;;
62435;SDS011;48480;50.252;18.848;2023-04-25T11:16:24;5.90;;;3.20;;
62435;SDS011;48480;50.252;18.848;2023-04-25T11:19:08;9.30;;;3.20;;
62435;SDS011;48480;50.252;18.848;2023-04-25T11:21:56;4.90;;;2.80;;
62435;SDS011;48480;50.252;18.848;2023-04-25T11:24:42;5.90;;;3.00;;
62435;SDS011;48480;50.252;18.848;2023-04-25T11:27:26;3.90;;;2.90;;
62435;SDS011;48480;50.252;18.848;2023-04-25T11:30:12;4.90;;;3.00;;
62435;SDS011;48480;50.252;18.848;2023-04-25T11:32:57;3.60;;;2.70;;
62435;SDS011;48480;50.252;18.848;2023-04-25T11:35:42;4.60;;;2.80;;
62435;SDS011;48480;50.252;18.848;2023-04-25T11:38:27;4.30;;;3.10;;
62435;SDS011;48480;50.252;18.848;2023-04-25T11:41:12;4.90;;;3.00;;
62435;SDS011;48480;50.252;18.848;2023-04-25T11:43:55;4.00;;;2.60;;
62435;SDS011;48480;50.252;18.848;2023-04-25T11:46:40;4.60;;;3.00;;
62435;SDS011;48480;50.252;18.848;2023-04-25T11:49:24;5.20;;;4.10;;
62435;SDS011;48480;50.252;18.848;2023-04-25T11:52:14;5.70;;;3.40;;
62435;SDS011;48480;50.252;18.848;2023-04-25T11:54:58;5.00;;;3.70;;
62435;SDS011;48480;50.252;18.848;2023-04-25T11:57:43;5.00;;;2.70;;
62435;SDS011;48480;50.252;18.848;2023-04-25T12:00:30;4.90;;;3.30;;
62435;SDS011;48480;50.252;18.848;2023-04-25T12:03:15;6.10;;;3.20;;
62435;SDS011;48480;50.252;18.848;2023-04-25T12:06:02;4.70;;;3.20;;
62435;SDS011;48480;50.252;18.848;2023-04-25T12:09:03;5.40;;;3.90;;
62435;SDS011;48480;50.252;18.848;2023-04-25T12:11:49;6.80;;;4.00;;
62435;SDS011;48480;50.252;18.848;2023-04-25T12:14:37;4.80;;;3.50;;
62435;SDS011;48480;50.252;18.848;2023-04-25T12:17:21;4.90;;;3.50;;
62435;SDS011;48480;50.252;18.848;2023-04-25T12:20:09;4.70;;;2.90;;
62435;SDS011;48480;50.252;18.848;2023-04-25T12:22:56;3.80;;;3.00;;
62435;SDS011;48480;50.252;18.848;2023-04-25T12:25:41;4.50;;;3.00;;
62435;SDS011;48480;50.252;18.848;2023-04-25T12:28:26;5.20;;;3.40;;
62435;SDS011;48480;50.252;18.848;2023-04-25T12:31:11;4.60;;;3.10;;
62435;SDS011;48480;50.252;18.848;2023-04-25T12:33:57;5.40;;;3.30;;
62435;SDS011;48480;50.252;18.848;2023-04-25T12:36:41;4.40;;;2.90;;
62435;SDS011;48480;50.252;18.848;2023-04-25T12:39:25;4.40;;;3.00;;
62435;SDS011;48480;50.252;18.848;2023-04-25T12:42:09;5.10;;;3.20;;
62435;SDS011;48480;50.252;18.848;2023-04-25T12:44:56;3.80;;;2.90;;
62435;SDS011;48480;50.252;18.848;2023-04-25T12:47:40;4.00;;;2.90;;
62435;SDS011;48480;50.252;18.848;2023-04-25T12:50:25;3.90;;;3.20;;
62435;SDS011;48480;50.252;18.848;2023-04-25T12:53:10;4.70;;;3.20;;
62435;SDS011;48480;50.252;18.848;2023-04-25T12:55:55;3.90;;;2.70;;
62435;SDS011;48480;50.252;18.848;2023-04-25T12:58:40;5.70;;;3.50;;
62435;SDS011;48480;50.252;18.848;2023-04-25T13:01:24;5.20;;;3.40;;
62435;SDS011;48480;50.252;18.848;2023-04-25T13:04:09;4.80;;;3.30;;
62435;SDS011;48480;50.252;18.848;2023-04-25T13:06:56;5.40;;;4.00;;
62435;SDS011;48480;50.252;18.848;2023-04-25T13:09:40;3.90;;;3.50;;
62435;SDS011;48480;50.252;18.848;2023-04-25T13:12:24;5.50;;;4.20;;
62435;SDS011;48480;50.252;18.848;2023-04-25T13:15:09;7.30;;;4.70;;
62435;SDS011;48480;50.252;18.848;2023-04-25T13:17:54;7.10;;;5.70;;
62435;SDS011;48480;50.252;18.848;2023-04-25T13:20:39;4.70;;;3.50;;
62435;SDS011;48480;50.252;18.848;2023-04-25T13:23:24;5.20;;;4.20;;
62435;SDS011;48480;50.252;18.848;2023-04-25T13:26:09;5.00;;;3.60;;
62435;SDS011;48480;50.252;18.848;2023-04-25T13:28:53;4.10;;;3.40;;
62435;SDS011;48480;50.252;18.848;2023-04-25T13:31:37;4.00;;;3.30;;
62435;SDS011;48480;50.252;18.848;2023-04-25T13:34:21;6.10;;;3.50;;
62435;SDS011;48480;50.252;18.848;2023-04-25T13:37:05;6.40;;;3.60;;
62435;SDS011;48480;50.252;18.848;2023-04-25T13:39:50;6.50;;;3.50;;
62435;SDS011;48480;50.252;18.848;2023-04-25T13:42:35;6.10;;;3.50;;
62435;SDS011;48480;50.252;18.848;2023-04-25T13:45:20;5.10;;;3.20;;
62435;SDS011;48480;50.252;18.848;2023-04-25T13:48:04;5.70;;;3.40;;
62435;SDS011;48480;50.252;18.848;2023-04-25T13:50:49;3.80;;;3.00;;
62435;SDS011;48480;50.252;18.848;2023-04-25T13:53:33;5.10;;;3.60;;
62435;SDS011;48480;50.252;18.848;2023-04-25T13:56:18;4.90;;;3.00;;
62435;SDS011;48480;50.252;18.848;2023-04-25T13:59:03;4.10;;;3.50;;
62435;SDS011;48480;50.252;18.848;2023-04-25T14:01:47;4.00;;;3.50;;
62435;SDS011;48480;50.252;18.848;2023-04-25T14:04:31;4.20;;;3.40;;
62435;SDS011;48480;50.252;18.848;2023-04-25T14:07:15;4.60;;;4.10;;
62435;SDS011;48480;50.252;18.848;2023-04-25T14:10:00;4.70;;;3.30;;
62435;SDS011;48480;50.252;18.848;2023-04-25T14:12:45;4.70;;;3.20;;
62435;SDS011;48480;50.252;18.848;2023-04-25T14:15:33;6.00;;;3.20;;
62435;SDS011;48480;50.252;18.848;2023-04-25T14:18:18;4.20;;;3.20;;
62435;SDS011;48480;50.252;18.848;2023-04-25T14:21:02;5.80;;;3.50;;
62435;SDS011;48480;50.252;18.848;2023-04-25T14:23:46;6.60;;;3.60;;
62435;SDS011;48480;50.252;18.848;2023-04-25T14:26:31;4.90;;;3.70;;
62435;SDS011;48480;50.252;18.848;2023-04-25T14:29:16;5.70;;;3.40;;
62435;SDS011;48480;50.252;18.848;2023-04-25T14:32:00;4.30;;;3.30;;
62435;SDS011;48480;50.252;18.848;2023-04-25T14:34:45;5.00;;;3.70;;
62435;SDS011;48480;50.252;18.848;2023-04-25T14:37:29;7.10;;;3.60;;
62435;SDS011;48480;50.252;18.848;2023-04-25T14:40:14;5.00;;;3.60;;
62435;SDS011;48480;50.252;18.848;2023-04-25T14:42:59;4.80;;;3.20;;
62435;SDS011;48480;50.252;18.848;2023-04-25T14:45:44;4.50;;;3.00;;
62435;SDS011;48480;50.252;18.848;2023-04-25T14:48:28;4.50;;;3.20;;
62435;SDS011;48480;50.252;18.848;2023-04-25T14:51:13;5.60;;;3.30;;
62435;SDS011;48480;50.252;18.848;2023-04-25T14:53:57;5.10;;;2.80;;
62435;SDS011;48480;50.252;18.848;2023-04-25T14:56:42;6.70;;;3.40;;
62435;SDS011;48480;50.252;18.848;2023-04-25T14:59:26;4.70;;;2.90;;
62435;SDS011;48480;50.252;18.848;2023-04-25T15:02:11;5.00;;;3.60;;
62435;SDS011;48480;50.252;18.848;2023-04-25T15:04:56;6.00;;;3.20;;
62435;SDS011;48480;50.252;18.848;2023-04-25T15:07:40;5.20;;;3.00;;
62435;SDS011;48480;50.252;18.848;2023-04-25T15:10:24;5.10;;;3.60;;
62435;SDS011;48480;50.252;18.848;2023-04-25T15:13:08;4.30;;;3.10;;
62435;SDS011;48480;50.252;18.848;2023-04-25T15:15:54;6.10;;;3.60;;
62435;SDS011;48480;50.252;18.848;2023-04-25T15:18:39;4.40;;;3.20;;
62435;SDS011;48480;50.252;18.848;2023-04-25T15:21:24;4.80;;;3.40;;
62435;SDS011;48480;50.252;18.848;2023-04-25T15:24:11;6.30;;;3.90;;
62435;SDS011;48480;50.252;18.848;2023-04-25T15:26:55;5.90;;;3.60;;
62435;SDS011;48480;50.252;18.848;2023-04-25T15:29:40;4.30;;;2.70;;
62435;SDS011;48480;50.252;18.848;2023-04-25T15:32:25;5.30;;;3.60;;
62435;SDS011;48480;50.252;18.848;2023-04-25T15:35:09;6.20;;;3.10;;
62435;SDS011;48480;50.252;18.848;2023-04-25T15:37:54;3.80;;;2.90;;
62435;SDS011;48480;50.252;18.848;2023-04-25T15:40:39;5.30;;;3.60;;
62435;SDS011;48480;50.252;18.848;2023-04-25T15:43:24;5.10;;;3.30;;
62435;SDS011;48480;50.252;18.848;2023-04-25T15:46:08;5.80;;;4.10;;
62435;SDS011;48480;50.252;18.848;2023-04-25T15:48:51;6.20;;;3.50;;
62435;SDS011;48480;50.252;18.848;2023-04-25T15:51:36;5.50;;;3.30;;
62435;SDS011;48480;50.252;18.848;2023-04-25T15:54:20;4.90;;;3.20;;
62435;SDS011;48480;50.252;18.848;2023-04-25T15:57:05;6.80;;;3.30;;
62435;SDS011;48480;50.252;18.848;2023-04-25T15:59:50;5.50;;;3.50;;
62435;SDS011;48480;50.252;18.848;2023-04-25T16:02:35;6.50;;;3.40;;
62435;SDS011;48480;50.252;18.848;2023-04-25T16:05:20;6.60;;;4.30;;
62435;SDS011;48480;50.252;18.848;2023-04-25T16:08:04;9.10;;;5.80;;
62435;SDS011;48480;50.252;18.848;2023-04-25T16:10:49;5.60;;;4.40;;
62435;SDS011;48480;50.252;18.848;2023-04-25T16:13:34;5.90;;;3.60;;
62435;SDS011;48480;50.252;18.848;2023-04-25T16:16:18;4.90;;;4.10;;
62435;SDS011;48480;50.252;18.848;2023-04-25T16:19:02;4.30;;;2.80;;
62435;SDS011;48480;50.252;18.848;2023-04-25T16:21:47;3.50;;;2.20;;